AirNav   Everest Fuels
 
 1094 users online  

31FL Forever Florida Airport
Melbourne, Florida, USA

GOING TO MELBOURNE?


FAA INFORMATION EFFECTIVE 22 APRIL 2021

Location

FAA Identifier: 31FL
Lat/Long: 28-02-36.0690N 081-01-09.2270W
28-02.601150N 081-01.153783W
28.0433525,-81.0192297
(estimated)
Elevation: 54 ft. / 16 m (estimated)
Variation: 03W (1985)
From city: 22 miles W of MELBOURNE, FL
Time zone: UTC -4 (UTC -5 during Standard Time)
Zip code: 34773

Airport Operations

Airport use: Private use. Permission required prior to landing
Activation date: 06/1981
Control tower: no
ARTCC: JACKSONVILLE CENTER
FSS: SAINT PETERSBURG FLIGHT SERVICE STATION
Attendance: UNATNDD
Wind indicator: yes
Segmented circle: no

Nearby radio navigation aids

VOR radial/distance  VOR name  Freq  Var
MLBr267/20.7MELBOURNE VOR/DME110.0007W
ORLr151/34.3ORLANDO VORTAC112.2000E
TRVr315/35.6TREASURE VORTAC117.3007W

Airport Services

Runway Information

Runway 9/27

Dimensions: 3000 x 150 ft. / 914 x 46 m
Surface: turf
RUNWAY 9  RUNWAY 27
Traffic pattern: leftleft

Airport Ownership and Management from official FAA records

Ownership: Privately-owned
Owner: ALLEN BROUSARD CONSERVANCY INC
4755 N. KENANVILLE RD
ST CLOUD, FL 34773
Phone (407) 892-5010
Manager: CYNTHIA DAVIS
4755 N. KENANVILLE RD
ST CLOUD, FL 34773
Phone (407) 892-5010

Additional Remarks

FOR CD CTC ORLANDO APCH AT 407-852-7553.

Instrument Procedures

There are no published instrument procedures at 31FL.

Some nearby airports with instrument procedures:

KMLB - Melbourne International Airport (20 nm E)
KCOF - Patrick Air Force Base (25 nm NE)
KCOI - Merritt Island Airport (25 nm NE)
KISM - Kissimmee Gateway Airport (27 nm NW)
KMCO - Orlando International Airport (28 nm NW)
 
Loc | Ops | Rwys | IFR | FBO | Links
Com | Nav | Svcs | Stats | Notes

Reliance Aviation
AirBoss

 
Area around 31FL (Forever Florida Airport)
 
Road maps at: MapQuest Bing Google
 
Aerial photo
WARNING: Photo may not be current or correct
Aerial photo of 31FL (Forever Florida Airport)
Photo courtesy of Skylar Schoemig

Do you have a better or more recent aerial photo of Forever Florida Airport that you would like to share? If so, please send us your photo.

 
Sectional chart

 
Airport distance calculator
Flying to Forever Florida Airport? Find the distance to fly.

From to 31FL

Sunrise and sunset
Times for 15-May-2021
 Local
(UTC-4)
 Zulu
(UTC)
Morning civil twilight06:1010:10
Sunrise06:3510:35
Sunset20:0600:06
Evening civil twilight20:3100:31

Current date and time
Zulu (UTC)  15-May-2021 21:43:18
Local (UTC-4)  15-May-2021 17:43:18
 
METAR
KMLB 
20nm E 
152053Z 04016G23KT 10SM CLR 27/14 A3010 RMK AO2 SLP191 T02720144 58015
KCOF 
25nm NE 
151756Z AUTO 02015KT 10SM FEW200 28/13 A3014 RMK AO2 SLP211 T02760128 10278 20242 58005 $
KISM 
26nm NW 
152056Z 08016G19KT 10SM FEW070 27/13 A3012 RMK AO2 SLP200 6//// T02720133 56012 PNO $
KMCO 
28nm NW 
152053Z 07016KT 10SM FEW060 FEW080 SCT250 27/12 A3012 RMK AO2 SLP197 T02670117 58012
KX26 
31nm SE 
152115Z AUTO 03014G21KT 10SM SCT043 SCT050 27/15 A3011 RMK AO2 T02660153
KTIX 
31nm NE 
152046Z 04013KT 7SM SCT070 28/13 A3014
KX07 
33nm W 
152115Z AUTO 07011KT 10SM FEW060 28/15 A3011 RMK A01
KORL 
35nm NW 
152053Z 06016G21KT 10SM FEW065 27/12 A3013 RMK AO2 SLP206 T02720122 56010
KXMR 
36nm NE 
152056Z AUTO 02011KT 10SM CLR 27/14 A3012 RMK AO2 SLP203 T02650142 57010 $
KTTS 
38nm NE 
151956Z AUTO 04012G17KT 10SM CLR 25/15 A3013 RMK AO2 SLP207 T02540145 $
TAF
KMLB 
20nm E 
151735Z 1518/1618 04017G24KT P6SM SCT050 FM160300 06012KT P6SM FEW050 FM161500 06014G20KT P6SM SCT050
NOTAMs
Click for the latest NOTAMs
NOTAMs are issued by the DoD/FAA and will open in a separate window not controlled by AirNav.

 

 
 

Would you like to see your business listed on this page?

 If your business provides an interesting product or service to pilots, flight crews, aircraft, or users of the Forever Florida Airport, you should consider listing it here.  To start the listing process, click on the button below
 
Add a business
 

Other Pages about Forever Florida Airport

Update a link
 
Copyright © AirNav, LLC. All rights reserved. Privacy Policy  Contact